createdAt,value
2022-12-11T00:00:31.195Z,20.67
2022-12-11T00:03:00.592Z,27.52
2022-12-11T00:05:28.579Z,22.95
2022-12-11T00:07:57.412Z,25.20
2022-12-11T00:10:25.505Z,26.73
2022-12-11T00:12:53.389Z,21.70
2022-12-11T00:15:21.391Z,21.77
2022-12-11T00:17:49.335Z,22.23
2022-12-11T00:20:18.808Z,21.60
2022-12-11T00:22:46.661Z,21.48
2022-12-11T00:25:14.532Z,19.73
2022-12-11T00:27:42.393Z,21.13
2022-12-11T00:30:11.400Z,25.20
2022-12-11T00:32:39.324Z,24.05
2022-12-11T00:35:07.932Z,23.67
2022-12-11T00:37:37.492Z,25.92
2022-12-11T00:40:06.097Z,21.92
2022-12-11T00:42:33.988Z,25.10
2022-12-11T00:45:01.875Z,24.48
2022-12-11T00:47:30.028Z,25.20
2022-12-11T00:49:57.957Z,23.90
2022-12-11T00:52:25.894Z,22.00
2022-12-11T00:54:55.142Z,26.05
2022-12-11T00:57:23.054Z,30.02
2022-12-11T00:59:51.048Z,24.15
2022-12-11T01:02:18.915Z,23.15
2022-12-11T01:04:46.755Z,22.05
2022-12-11T01:07:14.645Z,29.80
2022-12-11T01:10:00.021Z,26.15
2022-12-11T01:12:29.297Z,25.92
2022-12-11T01:14:57.155Z,28.88
2022-12-11T01:17:25.000Z,26.77
2022-12-11T01:19:55.480Z,23.83
2022-12-11T01:22:23.500Z,28.83
2022-12-11T01:24:51.442Z,27.02
2022-12-11T01:27:19.371Z,23.30
2022-12-11T01:29:49.541Z,25.90
2022-12-11T01:32:17.479Z,23.85
2022-12-11T01:34:45.350Z,29.70
2022-12-11T01:37:13.275Z,27.20
2022-12-11T01:39:41.208Z,30.70
2022-12-11T01:42:18.249Z,28.30
2022-12-11T01:45:27.260Z,28.27
2022-12-11T01:48:02.540Z,27.40
2022-12-11T01:50:34.109Z,23.85
2022-12-11T01:53:02.725Z,30.70
2022-12-11T01:55:30.770Z,23.35
2022-12-11T01:57:59.377Z,29.02
2022-12-11T02:00:27.298Z,27.25
2022-12-11T02:02:55.204Z,27.65
2022-12-11T02:05:24.703Z,24.42
2022-12-11T02:07:56.496Z,24.33
2022-12-11T02:10:33.845Z,27.17
2022-12-11T02:13:06.698Z,28.13
2022-12-11T02:15:39.021Z,26.55
2022-12-11T02:18:18.216Z,26.13
2022-12-11T02:20:54.539Z,28.40
2022-12-11T02:24:00.630Z,28.92
2022-12-11T02:27:03.136Z,27.58
2022-12-11T02:29:38.601Z,27.10
2022-12-11T02:32:11.884Z,34.70
2022-12-11T02:34:44.322Z,26.75
2022-12-11T02:37:17.451Z,29.65
2022-12-11T02:42:16.459Z,27.02
2022-12-11T02:44:47.932Z,27.27
2022-12-11T02:47:19.268Z,26.08
2022-12-11T02:49:50.715Z,27.40
2022-12-11T02:52:24.401Z,25.23
2022-12-11T02:54:56.649Z,34.70
2022-12-11T02:57:30.271Z,27.57
2022-12-11T02:59:59.862Z,31.70
2022-12-11T03:02:28.390Z,27.23
2022-12-11T03:04:57.246Z,25.08
2022-12-11T03:07:29.852Z,30.80
2022-12-11T03:09:57.782Z,25.98
2022-12-11T03:12:30.176Z,37.42
2022-12-11T03:15:03.082Z,31.38
2022-12-11T03:17:36.766Z,29.45
2022-12-11T03:20:13.491Z,28.05
2022-12-11T03:22:48.682Z,26.30
2022-12-11T03:25:21.877Z,26.30
2022-12-11T03:27:57.605Z,30.02
2022-12-11T03:30:29.908Z,30.55
2022-12-11T03:33:01.480Z,29.03
2022-12-11T03:35:34.708Z,25.35
2022-12-11T03:40:35.897Z,25.50
2022-12-11T03:43:05.537Z,35.28
2022-12-11T03:45:36.008Z,30.80
2022-12-11T03:48:04.599Z,34.00
2022-12-11T03:50:33.635Z,26.73
2022-12-11T03:53:02.999Z,32.25
2022-12-11T03:55:33.832Z,27.60
2022-12-11T03:58:01.827Z,30.38
2022-12-11T04:00:30.309Z,29.13
2022-12-11T04:03:19.274Z,33.63
2022-12-11T04:05:48.766Z,33.20
2022-12-11T04:08:18.053Z,28.60
2022-12-11T04:10:46.170Z,35.05
2022-12-11T04:13:14.235Z,31.63
2022-12-11T04:15:41.613Z,28.83
2022-12-11T04:18:28.629Z,30.75
2022-12-11T04:21:14.751Z,30.90
2022-12-11T04:24:14.526Z,32.38
2022-12-11T04:26:42.914Z,26.63
2022-12-11T04:29:10.900Z,33.97
2022-12-11T04:31:38.810Z,31.13
2022-12-11T04:34:08.186Z,32.45
2022-12-11T04:36:36.674Z,28.58
2022-12-11T04:39:05.359Z,36.47
2022-12-11T04:41:33.319Z,33.58
2022-12-11T04:44:01.386Z,29.10
2022-12-11T04:46:29.352Z,29.45
2022-12-11T04:48:58.059Z,26.33
2022-12-11T04:51:28.086Z,34.80
2022-12-11T04:53:56.284Z,33.05
2022-12-11T04:56:24.215Z,30.40
2022-12-11T04:58:52.098Z,27.80
2022-12-11T05:01:23.231Z,28.33
2022-12-11T05:03:51.742Z,36.53
2022-12-11T05:06:19.617Z,29.67
2022-12-11T05:08:48.814Z,26.08
2022-12-11T05:11:17.527Z,24.90
2022-12-11T05:13:46.436Z,28.65
2022-12-11T05:16:16.631Z,24.92
2022-12-11T05:18:44.928Z,32.30
2022-12-11T05:21:14.711Z,33.65
2022-12-11T05:23:42.955Z,29.13
2022-12-11T05:26:17.041Z,26.42
2022-12-11T05:28:45.827Z,31.13
2022-12-11T05:31:15.835Z,34.90
2022-12-11T05:33:43.895Z,26.27
2022-12-11T05:36:17.722Z,30.48
2022-12-11T05:38:45.921Z,33.08
2022-12-11T05:41:17.172Z,29.95
2022-12-11T05:43:45.671Z,27.63
2022-12-11T05:46:16.780Z,33.22
2022-12-11T05:48:46.127Z,27.23
2022-12-11T05:51:15.068Z,27.98
2022-12-11T05:53:44.505Z,33.22
2022-12-11T05:56:16.515Z,30.85
2022-12-11T05:58:45.739Z,28.85
2022-12-11T06:01:16.323Z,24.08
2022-12-11T06:03:44.708Z,32.05
2022-12-11T06:06:12.860Z,30.40
2022-12-11T06:08:40.846Z,28.55
2022-12-11T06:11:09.013Z,33.47
2022-12-11T06:13:38.198Z,26.40
2022-12-11T06:16:08.065Z,31.23
2022-12-11T06:18:37.945Z,30.25
2022-12-11T06:21:13.649Z,28.05
2022-12-11T06:23:42.468Z,26.23
2022-12-11T06:26:10.736Z,22.88
2022-12-11T06:28:40.564Z,21.20
2022-12-11T06:31:08.804Z,26.33
2022-12-11T06:33:36.958Z,25.60
2022-12-11T06:36:05.970Z,24.83
2022-12-11T06:38:33.872Z,23.23
2022-12-11T06:41:04.848Z,20.52
2022-12-11T06:43:33.471Z,25.45
2022-12-11T06:46:04.980Z,20.23
2022-12-11T06:48:33.168Z,20.30
2022-12-11T06:51:01.406Z,19.40
2022-12-11T06:53:29.303Z,23.30
2022-12-11T06:55:57.177Z,24.23
2022-12-11T06:58:25.015Z,18.65
2022-12-11T07:00:52.912Z,16.20
2022-12-11T07:03:22.157Z,21.20
2022-12-11T07:05:50.024Z,17.67
2022-12-11T07:08:17.919Z,21.52
2022-12-11T07:10:45.796Z,19.67
2022-12-11T07:13:13.638Z,16.45
2022-12-11T07:15:41.643Z,21.52
2022-12-11T07:18:10.772Z,18.13
2022-12-11T07:20:39.993Z,19.92
2022-12-11T07:23:07.974Z,21.02
2022-12-11T07:25:38.028Z,20.70
2022-12-11T07:28:06.302Z,16.73
2022-12-11T07:30:35.456Z,18.90
2022-12-11T07:33:03.398Z,21.33
2022-12-11T07:35:31.433Z,17.30
2022-12-11T07:38:00.647Z,18.65
2022-12-11T07:40:28.713Z,20.00
2022-12-11T07:42:56.812Z,22.77
2022-12-11T07:45:26.322Z,16.08
2022-12-11T07:47:54.265Z,21.73
2022-12-11T07:50:22.123Z,17.65
2022-12-11T07:52:50.011Z,19.00
2022-12-11T07:55:19.398Z,16.42
2022-12-11T07:57:47.291Z,21.10
2022-12-11T08:00:15.760Z,22.58
2022-12-11T08:02:43.676Z,18.95
2022-12-11T08:05:12.468Z,20.15
2022-12-11T08:07:41.055Z,19.38
2022-12-11T08:10:09.436Z,18.38
2022-12-11T08:12:38.667Z,17.67
2022-12-11T08:15:07.868Z,26.42
2022-12-11T08:17:40.062Z,22.88
2022-12-11T08:20:09.522Z,21.80
2022-12-11T08:22:37.465Z,22.23
2022-12-11T08:25:06.016Z,17.25
2022-12-11T08:27:33.850Z,23.40
2022-12-11T08:30:03.070Z,20.85
2022-12-11T08:32:31.090Z,16.58
2022-12-11T08:34:58.983Z,22.75
2022-12-11T08:37:26.833Z,17.85
2022-12-11T08:39:54.683Z,16.77
2022-12-11T08:42:22.592Z,20.20
2022-12-11T08:44:51.725Z,18.70
2022-12-11T08:47:23.052Z,20.27
2022-12-11T08:49:50.924Z,19.02
2022-12-11T08:52:18.873Z,18.55
2022-12-11T08:54:46.744Z,20.15
2022-12-11T08:57:14.878Z,21.88
2022-12-11T08:59:42.764Z,20.80
2022-12-11T09:02:12.579Z,20.08
2022-12-11T09:04:42.192Z,17.85
2022-12-11T09:07:10.039Z,20.65
2022-12-11T09:09:37.914Z,22.27
2022-12-11T09:12:06.226Z,22.45
2022-12-11T09:14:34.124Z,20.60
2022-12-11T09:17:02.084Z,18.02
2022-12-11T09:19:32.344Z,22.25
2022-12-11T09:22:01.889Z,20.25
2022-12-11T09:24:29.991Z,16.90
2022-12-11T09:26:57.802Z,19.52
2022-12-11T09:29:25.637Z,19.75
2022-12-11T09:31:53.514Z,20.58
2022-12-11T09:34:26.057Z,23.75
2022-12-11T09:36:57.187Z,19.48
2022-12-11T09:39:26.622Z,21.83
2022-12-11T09:42:01.426Z,19.65
2022-12-11T09:44:36.757Z,21.45
2022-12-11T09:47:04.704Z,21.33
2022-12-11T09:49:39.273Z,18.92
2022-12-11T09:52:19.564Z,19.20
2022-12-11T09:54:53.745Z,20.88
2022-12-11T09:57:37.012Z,22.75
2022-12-11T10:00:16.724Z,24.27
2022-12-11T10:03:09.180Z,21.60
2022-12-11T10:05:44.936Z,19.23
2022-12-11T10:08:20.873Z,18.92
2022-12-11T10:10:58.544Z,21.08
2022-12-11T10:13:38.478Z,20.00
2022-12-11T10:16:19.058Z,20.40
2022-12-11T10:18:47.733Z,22.50
2022-12-11T10:21:19.348Z,24.33
2022-12-11T10:23:54.573Z,22.00
2022-12-11T10:26:25.052Z,20.50
2022-12-11T10:28:53.097Z,25.95
2022-12-11T10:31:27.434Z,22.55
2022-12-11T10:34:00.831Z,19.13
2022-12-11T10:36:31.563Z,28.05
2022-12-11T10:39:00.367Z,18.15
2022-12-11T10:41:38.988Z,21.80
2022-12-11T10:44:17.451Z,23.13
2022-12-11T10:46:46.499Z,22.42
2022-12-11T10:49:30.039Z,20.40
2022-12-11T10:52:01.407Z,25.92
2022-12-11T10:54:33.638Z,24.95
2022-12-11T10:57:04.678Z,19.10
2022-12-11T10:59:37.562Z,27.50
2022-12-11T11:02:08.274Z,18.42
2022-12-11T11:04:38.803Z,19.15
2022-12-11T11:07:13.826Z,20.30
2022-12-11T11:09:42.128Z,19.48
2022-12-11T11:12:24.325Z,22.63
2022-12-11T11:15:02.611Z,22.20
2022-12-11T11:17:35.057Z,19.13
2022-12-11T11:20:15.415Z,25.42
2022-12-11T11:22:47.891Z,21.83
2022-12-11T11:25:21.412Z,20.57
2022-12-11T11:27:53.874Z,21.35
2022-12-11T11:30:24.664Z,16.08
2022-12-11T11:32:55.263Z,20.23
2022-12-11T11:35:25.670Z,20.20
2022-12-11T11:38:03.706Z,21.00
2022-12-11T11:40:36.905Z,22.48
2022-12-11T11:43:20.060Z,21.60
2022-12-11T11:45:53.669Z,18.13
2022-12-11T11:48:36.810Z,21.50
2022-12-11T11:51:15.864Z,23.90
2022-12-11T11:53:48.222Z,21.52
2022-12-11T11:56:23.010Z,21.52
2022-12-11T11:59:04.162Z,19.83
2022-12-11T12:01:32.593Z,17.15
2022-12-11T12:04:02.562Z,23.05
2022-12-11T12:06:57.256Z,20.65
2022-12-11T12:09:34.895Z,23.23
2022-12-11T12:12:13.433Z,22.88
2022-12-11T12:14:56.041Z,25.27
2022-12-11T12:17:36.090Z,15.80
2022-12-11T12:20:14.648Z,19.85
2022-12-11T12:23:01.438Z,23.17
2022-12-11T12:25:36.033Z,19.58
2022-12-11T12:28:17.636Z,17.55
2022-12-11T12:31:02.700Z,25.75
2022-12-11T12:33:43.536Z,23.73
2022-12-11T12:36:21.797Z,20.33
2022-12-11T12:38:55.303Z,20.52
2022-12-11T12:41:31.574Z,19.95
2022-12-11T12:44:13.761Z,24.20
2022-12-11T12:46:52.654Z,19.42
2022-12-11T12:49:31.723Z,20.42
2022-12-11T12:52:01.206Z,18.20
2022-12-11T12:54:32.010Z,24.73
2022-12-11T12:57:02.047Z,26.73
2022-12-11T12:59:29.965Z,18.92
2022-12-11T13:02:02.774Z,26.63
2022-12-11T13:07:30.757Z,25.67
2022-12-11T13:10:06.576Z,20.13
2022-12-11T13:12:42.592Z,21.13
2022-12-11T13:15:37.213Z,23.58
2022-12-11T13:18:34.017Z,22.15
2022-12-11T13:21:02.796Z,20.63
2022-12-11T13:23:32.142Z,24.05
2022-12-11T13:26:01.995Z,22.65
2022-12-11T13:28:46.707Z,20.52
2022-12-11T13:31:35.017Z,22.85
2022-12-11T13:34:17.534Z,25.17
2022-12-11T13:36:50.123Z,25.57
2022-12-11T13:39:20.854Z,22.08
2022-12-11T13:41:53.253Z,20.20
2022-12-11T13:44:27.124Z,19.03
2022-12-11T13:46:57.013Z,20.48
2022-12-11T13:49:29.734Z,18.35
2022-12-11T13:52:00.277Z,26.90
2022-12-11T13:54:29.789Z,25.80
2022-12-11T13:57:01.035Z,18.73
2022-12-11T13:59:32.729Z,20.50
2022-12-11T14:02:05.313Z,25.88
2022-12-11T14:04:35.576Z,20.77
2022-12-11T14:07:08.170Z,23.58
2022-12-11T14:09:40.148Z,18.92
2022-12-11T14:12:08.170Z,20.40
2022-12-11T14:14:43.242Z,20.65
2022-12-11T14:17:15.110Z,20.45
2022-12-11T14:19:48.254Z,23.13
2022-12-11T14:24:52.019Z,17.55
2022-12-11T14:27:20.971Z,17.97
2022-12-11T14:29:49.231Z,19.92
2022-12-11T14:32:25.205Z,23.92
2022-12-11T14:34:56.062Z,23.45
2022-12-11T14:37:25.923Z,22.88
2022-12-11T14:40:00.815Z,21.15
2022-12-11T14:42:32.222Z,17.67
2022-12-11T14:45:07.927Z,21.77
2022-12-11T14:47:42.178Z,26.88
2022-12-11T14:50:19.228Z,30.92
2022-12-11T14:52:51.960Z,31.05
2022-12-11T14:55:23.384Z,22.80
2022-12-11T14:57:56.031Z,22.60
2022-12-11T15:00:27.079Z,29.67
2022-12-11T15:03:01.371Z,26.98
2022-12-11T15:05:35.789Z,22.17
2022-12-11T15:08:24.706Z,25.95
2022-12-11T15:11:04.423Z,21.38
2022-12-11T15:13:34.054Z,27.63
2022-12-11T15:16:03.282Z,22.83
2022-12-11T15:18:33.945Z,26.30
2022-12-11T15:21:07.018Z,22.35
2022-12-11T15:26:07.392Z,20.52
2022-12-11T15:28:37.338Z,21.65
2022-12-11T15:31:08.546Z,22.70
2022-12-11T15:33:47.655Z,21.38
2022-12-11T15:36:26.634Z,25.92
2022-12-11T15:38:54.538Z,25.45
2022-12-11T15:41:24.606Z,25.17
2022-12-11T15:43:58.283Z,23.30
2022-12-11T15:46:27.281Z,25.40
2022-12-11T15:48:57.444Z,26.55
2022-12-11T15:51:27.571Z,26.25
2022-12-11T15:53:55.518Z,24.27
2022-12-11T15:56:23.476Z,22.40
2022-12-11T15:58:51.420Z,25.13
2022-12-11T16:01:19.296Z,21.25
2022-12-11T16:03:47.155Z,20.50
2022-12-11T16:06:15.158Z,23.02
2022-12-11T16:08:44.457Z,20.42
2022-12-11T16:11:14.428Z,23.92
2022-12-11T16:13:42.264Z,25.70
2022-12-11T16:16:10.141Z,26.20
2022-12-11T16:18:38.035Z,22.35
2022-12-11T16:21:06.680Z,26.08
2022-12-11T16:23:34.555Z,23.45
2022-12-11T16:26:09.583Z,23.70
2022-12-11T16:28:37.465Z,23.58
2022-12-11T16:31:05.382Z,26.13
2022-12-11T16:33:33.283Z,26.77
2022-12-11T16:36:01.155Z,25.27
2022-12-11T16:38:29.166Z,25.90
2022-12-11T16:41:03.480Z,24.25
2022-12-11T16:43:33.401Z,22.77
2022-12-11T16:46:01.304Z,21.58
2022-12-11T16:48:29.232Z,25.95
2022-12-11T16:50:58.024Z,25.50
2022-12-11T16:53:26.152Z,26.10
2022-12-11T16:55:54.067Z,21.13
2022-12-11T16:58:21.964Z,26.15
2022-12-11T17:00:51.281Z,24.13
2022-12-11T17:03:20.110Z,25.58
2022-12-11T17:05:48.299Z,23.20
2022-12-11T17:08:16.134Z,29.90
2022-12-11T17:10:44.072Z,30.33
2022-12-11T17:13:11.901Z,29.10
2022-12-11T17:15:41.621Z,30.25
2022-12-11T17:18:11.821Z,27.35
2022-12-11T17:20:41.727Z,24.77
2022-12-11T17:23:10.636Z,31.83
2022-12-11T17:25:41.910Z,22.52
2022-12-11T17:28:10.133Z,30.67
2022-12-11T17:30:41.882Z,22.67
2022-12-11T17:33:11.221Z,29.70
2022-12-11T17:35:39.654Z,23.23
2022-12-11T17:38:07.716Z,31.20
2022-12-11T17:40:35.608Z,23.90
2022-12-11T17:43:06.346Z,23.38
2022-12-11T17:45:34.807Z,27.77
2022-12-11T17:48:02.714Z,26.05
2022-12-11T17:50:32.043Z,29.88
2022-12-11T17:52:59.889Z,25.70
2022-12-11T17:55:27.787Z,26.38
2022-12-11T17:57:55.709Z,30.92
2022-12-11T18:00:24.588Z,34.63
2022-12-11T18:02:54.311Z,31.08
2022-12-11T18:05:22.196Z,30.05
2022-12-11T18:07:56.014Z,28.40
2022-12-11T18:10:25.750Z,27.60
2022-12-11T18:12:54.161Z,25.42
2022-12-11T18:15:21.999Z,26.77
2022-12-11T18:17:49.867Z,24.05
2022-12-11T18:20:17.860Z,24.75
2022-12-11T18:22:45.739Z,27.80
2022-12-11T18:25:15.421Z,26.90
2022-12-11T18:27:43.970Z,25.35
2022-12-11T18:30:14.172Z,28.50
2022-12-11T18:32:42.479Z,23.58
2022-12-11T18:35:11.686Z,28.23
2022-12-11T18:37:41.164Z,24.23
2022-12-11T18:40:10.667Z,26.23
2022-12-11T18:42:39.946Z,29.17
2022-12-11T18:45:09.213Z,30.60
2022-12-11T18:47:38.001Z,26.02
2022-12-11T18:50:08.199Z,26.30
2022-12-11T18:52:36.277Z,28.55
2022-12-11T18:55:04.316Z,23.85
2022-12-11T18:57:32.441Z,29.08
2022-12-11T19:00:07.095Z,27.35
2022-12-11T19:02:35.505Z,23.67
2022-12-11T19:05:03.929Z,28.50
2022-12-11T19:07:31.983Z,25.17
2022-12-11T19:09:59.925Z,26.20
2022-12-11T19:12:27.849Z,30.27
2022-12-11T19:14:55.748Z,24.90
2022-12-11T19:17:25.004Z,28.05
2022-12-11T19:19:53.267Z,33.03
2022-12-11T19:22:21.304Z,27.00
2022-12-11T19:24:49.169Z,33.15
2022-12-11T19:27:17.022Z,27.50
2022-12-11T19:29:44.917Z,26.70
2022-12-11T19:32:12.811Z,26.65
2022-12-11T19:34:42.053Z,29.88
2022-12-11T19:37:10.131Z,24.30
2022-12-11T19:39:40.534Z,26.63
2022-12-11T19:42:08.461Z,26.90
2022-12-11T19:44:36.346Z,26.33
2022-12-11T19:47:04.446Z,23.10
2022-12-11T19:49:32.635Z,28.77
2022-12-11T19:52:01.856Z,26.88
2022-12-11T19:54:29.732Z,30.40
2022-12-11T19:56:57.619Z,29.23
2022-12-11T19:59:25.705Z,25.20
2022-12-11T20:01:53.686Z,25.60
2022-12-11T20:04:21.605Z,28.13
2022-12-11T20:06:49.570Z,25.75
2022-12-11T20:09:18.977Z,30.42
2022-12-11T20:11:48.426Z,27.77
2022-12-11T20:14:21.020Z,27.02
2022-12-11T20:19:37.210Z,27.85
2022-12-11T20:22:05.605Z,27.38
2022-12-11T20:24:34.876Z,27.80
2022-12-11T20:27:02.762Z,24.05
2022-12-11T20:29:30.895Z,32.58
2022-12-11T20:32:00.473Z,27.70
2022-12-11T20:34:28.957Z,31.90
2022-12-11T20:36:57.076Z,32.50
2022-12-11T20:39:25.264Z,31.05
2022-12-11T20:41:54.617Z,28.63
2022-12-11T20:44:22.499Z,33.50
2022-12-11T20:46:50.711Z,29.30
2022-12-11T20:49:18.597Z,26.33
2022-12-11T20:51:46.433Z,26.75
2022-12-11T20:54:14.459Z,29.30
2022-12-11T20:56:43.453Z,30.80
2022-12-11T20:59:13.356Z,29.50
2022-12-11T21:01:41.704Z,28.10
2022-12-11T21:04:09.866Z,33.67
2022-12-11T21:06:40.538Z,32.67
2022-12-11T21:09:13.114Z,35.53
2022-12-11T21:11:41.276Z,25.98
2022-12-11T21:14:09.183Z,31.33
2022-12-11T21:16:38.865Z,32.30
2022-12-11T21:19:10.124Z,31.13
2022-12-11T21:21:40.495Z,32.60
2022-12-11T21:24:10.096Z,30.83
2022-12-11T21:26:38.175Z,32.25
2022-12-11T21:29:06.275Z,35.70
2022-12-11T21:31:34.321Z,35.95
2022-12-11T21:34:03.895Z,35.53
2022-12-11T21:36:32.243Z,36.92
2022-12-11T21:39:00.978Z,36.58
2022-12-11T21:41:28.990Z,35.85
2022-12-11T21:46:45.844Z,34.03
2022-12-11T21:49:15.038Z,33.03
2022-12-11T21:51:47.095Z,32.20
2022-12-11T21:54:19.796Z,32.78
2022-12-11T21:56:48.142Z,29.77
2022-12-11T21:59:16.156Z,33.08
2022-12-11T22:01:46.191Z,30.08
2022-12-11T22:04:16.671Z,32.55
2022-12-11T22:06:47.281Z,37.75
2022-12-11T22:09:16.569Z,33.33
2022-12-11T22:11:45.218Z,33.97
2022-12-11T22:14:14.502Z,32.65
2022-12-11T22:16:42.864Z,30.45
2022-12-11T22:19:11.205Z,32.45
2022-12-11T22:21:40.801Z,39.03
2022-12-11T22:24:08.984Z,30.38
2022-12-11T22:26:36.872Z,38.60
2022-12-11T22:29:04.811Z,32.80
2022-12-11T22:31:33.010Z,36.90
2022-12-11T22:34:01.029Z,36.42
2022-12-11T22:36:28.952Z,35.95
2022-12-11T22:38:58.168Z,32.42
2022-12-11T22:41:28.333Z,37.50
2022-12-11T22:43:56.703Z,35.35
2022-12-11T22:46:26.507Z,35.42
2022-12-11T22:48:54.909Z,39.13
2022-12-11T22:51:23.524Z,35.50
2022-12-11T22:53:51.786Z,36.10
2022-12-11T22:56:21.183Z,34.78
2022-12-11T22:58:49.149Z,39.05
2022-12-11T23:01:20.103Z,34.63
2022-12-11T23:03:48.957Z,37.03
2022-12-11T23:06:18.943Z,41.17
2022-12-11T23:08:47.012Z,36.35
2022-12-11T23:11:17.800Z,36.22
2022-12-11T23:13:47.373Z,35.03
2022-12-11T23:16:16.085Z,34.08
2022-12-11T23:18:44.331Z,40.60
2022-12-11T23:21:13.173Z,38.97
2022-12-11T23:23:41.362Z,34.17
2022-12-11T23:26:11.392Z,37.97
2022-12-11T23:28:40.342Z,36.55
2022-12-11T23:31:10.206Z,35.63
2022-12-11T23:33:38.533Z,31.90
2022-12-11T23:36:07.411Z,34.20
2022-12-11T23:38:35.478Z,38.70
2022-12-11T23:41:04.845Z,38.83
2022-12-11T23:43:33.253Z,35.40
2022-12-11T23:46:01.141Z,35.20
2022-12-11T23:48:31.153Z,37.08
2022-12-11T23:51:00.707Z,34.45
2022-12-11T23:53:28.831Z,32.78
2022-12-11T23:55:56.754Z,30.80
2022-12-11T23:58:24.606Z,31.08
